createdAt,value
2017-10-12T00:01:53.775Z,28.60
2017-10-12T00:04:21.462Z,26.07
2017-10-12T00:06:49.124Z,27.70
2017-10-12T00:09:16.800Z,25.47
2017-10-12T00:11:44.451Z,23.47
2017-10-12T00:14:12.060Z,21.43
2017-10-12T00:16:39.732Z,20.43
2017-10-12T00:19:07.452Z,21.17
2017-10-12T00:21:35.126Z,23.97
2017-10-12T00:24:02.736Z,22.63
2017-10-12T00:26:30.463Z,22.70
2017-10-12T00:28:58.072Z,22.03
2017-10-12T00:31:25.739Z,25.20
2017-10-12T00:33:53.395Z,23.33
2017-10-12T00:36:21.052Z,23.87
2017-10-12T00:38:48.658Z,24.27
2017-10-12T00:41:16.372Z,26.70
2017-10-12T00:43:44.040Z,28.87
2017-10-12T00:46:11.650Z,24.10
2017-10-12T00:48:39.314Z,23.07
2017-10-12T00:51:06.933Z,23.97
2017-10-12T00:53:34.546Z,21.13
2017-10-12T00:56:02.208Z,20.77
2017-10-12T00:58:29.815Z,23.50
2017-10-12T01:00:57.517Z,22.63
2017-10-12T01:03:25.195Z,23.17
2017-10-12T01:05:52.963Z,23.50
2017-10-12T01:08:20.632Z,24.30
2017-10-12T01:10:48.279Z,26.97
2017-10-12T01:13:15.886Z,24.77
2017-10-12T01:15:43.555Z,27.70
2017-10-12T01:18:11.208Z,24.50
2017-10-12T01:20:38.873Z,30.57
2017-10-12T01:23:06.560Z,30.10
2017-10-12T01:25:34.236Z,28.47
2017-10-12T01:28:01.855Z,29.17
2017-10-12T01:30:29.472Z,29.00
2017-10-12T01:32:57.148Z,28.23
2017-10-12T01:35:24.835Z,29.87
2017-10-12T01:37:52.467Z,29.00
2017-10-12T01:40:20.143Z,25.40
2017-10-12T01:42:47.842Z,29.70
2017-10-12T01:45:15.460Z,28.73
2017-10-12T01:47:43.124Z,25.87
2017-10-12T01:50:10.735Z,25.80
2017-10-12T01:52:38.432Z,24.70
2017-10-12T01:55:06.080Z,19.00
2017-10-12T01:57:33.687Z,20.10
2017-10-12T02:00:01.307Z,19.37
2017-10-12T02:02:28.966Z,19.77
2017-10-12T02:04:56.580Z,19.97
2017-10-12T02:07:24.193Z,17.27
2017-10-12T02:09:51.888Z,18.17
2017-10-12T02:12:19.566Z,19.07
2017-10-12T02:14:47.235Z,19.17
2017-10-12T02:17:14.916Z,19.27
2017-10-12T02:19:42.602Z,21.10
2017-10-12T02:22:10.281Z,24.50
2017-10-12T02:24:38.015Z,22.80
2017-10-12T02:27:05.697Z,21.80
2017-10-12T02:29:33.368Z,22.40
2017-10-12T02:32:01.036Z,25.57
2017-10-12T02:34:28.665Z,29.10
2017-10-12T02:36:56.284Z,28.47
2017-10-12T02:39:24.006Z,26.13
2017-10-12T02:41:51.615Z,26.70
2017-10-12T02:44:19.284Z,29.87
2017-10-12T02:46:47.048Z,26.87
2017-10-12T02:49:14.712Z,23.87
2017-10-12T02:51:42.322Z,23.20
2017-10-12T02:54:10.040Z,20.70
2017-10-12T02:56:37.642Z,21.77
2017-10-12T02:59:05.314Z,22.67
2017-10-12T03:01:32.999Z,24.93
2017-10-12T03:04:00.624Z,24.10
2017-10-12T03:06:28.295Z,25.00
2017-10-12T03:08:55.963Z,21.17
2017-10-12T03:11:23.571Z,24.20
2017-10-12T03:13:51.253Z,28.60
2017-10-12T03:16:19.036Z,29.10
2017-10-12T03:18:46.695Z,28.80
2017-10-12T03:21:14.422Z,27.20
2017-10-12T03:23:42.082Z,24.10
2017-10-12T03:26:09.696Z,21.63
2017-10-12T03:28:37.375Z,23.03
2017-10-12T03:31:05.029Z,24.40
2017-10-12T03:33:33.632Z,21.20
2017-10-12T03:36:01.300Z,21.03
2017-10-12T03:38:29.027Z,21.80
2017-10-12T03:40:56.692Z,20.70
2017-10-12T03:43:24.355Z,19.23
2017-10-12T03:45:52.079Z,19.20
2017-10-12T03:48:19.743Z,20.33
2017-10-12T03:50:47.408Z,22.30
2017-10-12T03:53:15.121Z,23.77
2017-10-12T03:55:42.731Z,25.50
2017-10-12T03:58:10.343Z,30.67
2017-10-12T04:00:37.996Z,25.17
2017-10-12T04:03:05.648Z,30.67
2017-10-12T04:05:33.329Z,29.80
2017-10-12T04:08:01.051Z,26.80
2017-10-12T04:10:28.665Z,23.17
2017-10-12T04:12:56.272Z,25.70
2017-10-12T04:15:23.924Z,28.87
2017-10-12T04:17:51.535Z,24.47
2017-10-12T04:20:19.196Z,24.87
2017-10-12T04:22:46.920Z,24.87
2017-10-12T04:25:14.524Z,36.17
2017-10-12T04:27:42.236Z,42.37
2017-10-12T04:30:09.897Z,31.77
2017-10-12T04:32:37.503Z,29.93
2017-10-12T04:35:05.114Z,24.27
2017-10-12T04:37:32.827Z,22.73
2017-10-12T04:40:00.496Z,21.10
2017-10-12T04:42:28.160Z,19.70
2017-10-12T04:44:55.833Z,25.03
2017-10-12T04:47:23.436Z,37.70
2017-10-12T04:49:51.049Z,53.47
2017-10-12T04:52:18.764Z,115.47
2017-10-12T04:54:46.382Z,156.47
2017-10-12T04:57:14.059Z,154.07
2017-10-12T04:59:41.775Z,76.80
2017-10-12T05:02:09.384Z,41.37
2017-10-12T05:04:36.993Z,39.67
2017-10-12T05:07:04.712Z,33.80
2017-10-12T05:09:32.314Z,29.47
2017-10-12T05:11:59.981Z,28.63
2017-10-12T05:14:27.698Z,27.50
2017-10-12T05:16:55.364Z,34.63
2017-10-12T05:19:22.987Z,37.13
2017-10-12T05:21:50.715Z,47.40
2017-10-12T05:24:18.324Z,47.00
2017-10-12T05:26:45.938Z,50.90
2017-10-12T05:29:13.650Z,53.27
2017-10-12T05:31:41.340Z,52.90
2017-10-12T05:34:08.947Z,49.50
2017-10-12T05:36:36.600Z,47.77
2017-10-12T05:39:04.359Z,36.10
2017-10-12T05:41:32.019Z,32.00
2017-10-12T05:43:59.670Z,30.20
2017-10-12T05:46:27.333Z,29.27
2017-10-12T05:48:54.987Z,24.83
2017-10-12T05:51:22.652Z,21.33
2017-10-12T05:53:50.266Z,23.00
2017-10-12T05:56:17.945Z,25.80
2017-10-12T05:58:45.634Z,25.10
2017-10-12T06:01:13.316Z,24.50
2017-10-12T06:03:40.930Z,21.60
2017-10-12T06:06:08.591Z,20.27
2017-10-12T06:08:36.261Z,20.67
2017-10-12T06:11:03.875Z,22.20
2017-10-12T06:13:31.600Z,19.83
2017-10-12T06:15:59.269Z,24.17
2017-10-12T06:18:26.936Z,20.50
2017-10-12T06:20:54.619Z,18.07
2017-10-12T06:23:22.292Z,16.33
2017-10-12T06:25:49.901Z,16.10
2017-10-12T06:28:17.571Z,14.03
2017-10-12T06:30:45.233Z,17.00
2017-10-12T06:33:12.905Z,11.63
2017-10-12T06:35:40.620Z,8.40
2017-10-12T06:38:08.279Z,7.93
2017-10-12T06:40:35.904Z,7.50
2017-10-12T06:43:03.588Z,8.93
2017-10-12T06:45:31.202Z,8.20
2017-10-12T06:47:58.831Z,7.17
2017-10-12T06:50:26.588Z,8.10
2017-10-12T06:52:54.204Z,7.10
2017-10-12T06:55:21.814Z,7.87
2017-10-12T06:57:49.502Z,7.70
2017-10-12T07:00:17.119Z,6.97
2017-10-12T07:02:44.785Z,7.93
2017-10-12T07:05:12.545Z,9.60
2017-10-12T07:07:40.159Z,8.07
2017-10-12T07:10:07.830Z,5.87
2017-10-12T07:12:35.492Z,9.50
2017-10-12T07:15:03.111Z,6.00
2017-10-12T07:17:30.815Z,21.50
2017-10-12T07:19:58.479Z,8.40
2017-10-12T07:22:26.104Z,7.30
2017-10-12T07:24:53.709Z,6.80
2017-10-12T07:27:21.451Z,6.50
2017-10-12T07:29:49.126Z,7.70
2017-10-12T07:32:16.727Z,6.87
2017-10-12T07:34:44.432Z,5.63
2017-10-12T07:37:12.093Z,5.27
2017-10-12T07:39:39.768Z,10.63
2017-10-12T07:42:07.427Z,6.93
2017-10-12T07:44:35.098Z,11.57
2017-10-12T07:47:02.720Z,42.20
2017-10-12T07:49:30.380Z,17.63
2017-10-12T07:51:57.983Z,8.70
2017-10-12T07:54:25.652Z,7.40
2017-10-12T07:56:53.331Z,10.27
2017-10-12T07:59:20.931Z,5.33
2017-10-12T08:01:48.594Z,9.73
2017-10-12T08:04:16.303Z,5.83
2017-10-12T08:06:44.027Z,5.90
2017-10-12T08:09:11.700Z,4.50
2017-10-12T08:11:39.368Z,4.37
2017-10-12T08:14:06.986Z,4.67
2017-10-12T08:16:34.595Z,4.30
2017-10-12T08:19:02.377Z,4.83
2017-10-12T08:21:30.045Z,3.80
2017-10-12T08:23:57.709Z,4.30
2017-10-12T08:26:25.364Z,4.07
2017-10-12T08:28:53.012Z,4.23
2017-10-12T08:31:20.616Z,4.43
2017-10-12T08:33:48.323Z,4.30
2017-10-12T08:36:16.000Z,5.50
2017-10-12T08:38:43.607Z,4.67
2017-10-12T08:41:11.276Z,4.40
2017-10-12T08:43:38.944Z,5.70
2017-10-12T08:46:06.553Z,5.20
2017-10-12T08:48:34.280Z,4.63
2017-10-12T08:51:01.943Z,3.67
2017-10-12T08:53:29.563Z,5.07
2017-10-12T08:55:57.272Z,3.40
2017-10-12T08:58:24.948Z,4.27
2017-10-12T09:00:52.572Z,4.47
2017-10-12T09:03:20.231Z,3.77
2017-10-12T09:05:47.835Z,3.83
2017-10-12T09:08:15.504Z,35.20
2017-10-12T09:10:43.222Z,9.80
2017-10-12T09:13:10.836Z,5.63
2017-10-12T09:15:38.454Z,9.40
2017-10-12T09:18:06.115Z,4.93
2017-10-12T09:20:33.727Z,4.20
2017-10-12T09:23:01.335Z,6.50
2017-10-12T09:25:29.065Z,6.90
2017-10-12T09:27:56.675Z,3.23
2017-10-12T09:30:24.279Z,4.67
2017-10-12T09:32:52.001Z,3.40
2017-10-12T09:35:19.675Z,4.00
2017-10-12T09:37:47.356Z,3.90
2017-10-12T09:40:15.107Z,3.83
2017-10-12T09:42:42.783Z,3.57
2017-10-12T09:45:10.409Z,3.53
2017-10-12T09:47:38.079Z,3.60
2017-10-12T09:50:05.680Z,3.30
2017-10-12T09:52:33.300Z,3.33
2017-10-12T09:55:00.954Z,3.90
2017-10-12T09:57:28.589Z,3.73
2017-10-12T09:59:56.204Z,3.60
2017-10-12T10:02:23.922Z,2.47
2017-10-12T10:04:51.524Z,3.33
2017-10-12T10:07:19.159Z,3.30
2017-10-12T10:09:46.823Z,3.60
2017-10-12T10:12:14.432Z,3.30
2017-10-12T10:14:42.035Z,2.90
2017-10-12T10:17:09.707Z,4.73
2017-10-12T10:19:37.384Z,3.90
2017-10-12T10:22:05.050Z,3.33
2017-10-12T10:24:32.695Z,4.03
2017-10-12T10:27:00.304Z,3.77
2017-10-12T10:29:27.976Z,3.77
2017-10-12T10:31:55.639Z,3.17
2017-10-12T10:34:23.244Z,4.37
2017-10-12T10:36:50.856Z,4.50
2017-10-12T10:39:18.540Z,3.70
2017-10-12T10:41:46.203Z,3.70
2017-10-12T10:44:13.815Z,5.37
2017-10-12T10:46:41.482Z,3.80
2017-10-12T10:49:09.092Z,3.00
2017-10-12T10:51:36.700Z,5.13
2017-10-12T10:54:04.428Z,3.83
2017-10-12T10:56:32.095Z,3.80
2017-10-12T10:58:59.762Z,2.90
2017-10-12T11:01:27.431Z,2.23
2017-10-12T11:03:55.055Z,2.93
2017-10-12T11:06:22.660Z,3.30
2017-10-12T11:08:50.374Z,3.10
2017-10-12T11:11:17.983Z,3.20
2017-10-12T11:13:45.576Z,2.30
2017-10-12T11:16:13.243Z,3.13
2017-10-12T11:18:40.847Z,3.10
2017-10-12T11:21:08.539Z,2.87
2017-10-12T11:23:36.192Z,2.53
2017-10-12T11:26:03.856Z,2.40
2017-10-12T11:28:31.523Z,4.10
2017-10-12T11:30:59.216Z,3.17
2017-10-12T11:33:26.820Z,4.20
2017-10-12T11:35:54.486Z,3.00
2017-10-12T11:38:22.138Z,2.90
2017-10-12T11:40:49.744Z,2.93
2017-10-12T11:43:17.347Z,5.17
2017-10-12T11:45:45.056Z,2.33
2017-10-12T11:48:12.725Z,2.70
2017-10-12T11:50:40.405Z,3.00
2017-10-12T11:53:08.067Z,2.30
2017-10-12T11:55:35.684Z,2.63
2017-10-12T11:58:03.294Z,2.57
2017-10-12T12:00:30.971Z,2.60
2017-10-12T12:02:58.632Z,4.33
2017-10-12T12:05:26.242Z,3.07
2017-10-12T12:07:54.012Z,2.87
2017-10-12T12:10:21.732Z,2.97
2017-10-12T12:12:49.387Z,3.20
2017-10-12T12:15:17.075Z,5.80
2017-10-12T12:17:44.683Z,5.23
2017-10-12T12:20:12.296Z,4.30
2017-10-12T12:22:40.012Z,3.07
2017-10-12T12:25:07.623Z,2.57
2017-10-12T12:27:35.231Z,3.10
2017-10-12T12:30:02.892Z,3.47
2017-10-12T12:32:30.563Z,3.27
2017-10-12T12:34:58.160Z,3.43
2017-10-12T12:37:25.872Z,2.70
2017-10-12T12:39:53.463Z,2.73
2017-10-12T12:42:21.069Z,3.10
2017-10-12T12:44:48.741Z,2.40
2017-10-12T12:47:16.359Z,2.40
2017-10-12T12:49:44.024Z,2.90
2017-10-12T12:52:11.689Z,2.80
2017-10-12T12:54:39.355Z,3.20
2017-10-12T12:57:07.013Z,3.47
2017-10-12T12:59:34.624Z,3.23
2017-10-12T13:02:02.227Z,2.40
2017-10-12T13:04:29.876Z,2.60
2017-10-12T13:06:57.471Z,2.80
2017-10-12T13:09:25.080Z,2.97
2017-10-12T13:11:52.728Z,2.77
2017-10-12T13:14:20.332Z,2.73
2017-10-12T13:16:47.943Z,2.27
2017-10-12T13:19:15.610Z,2.00
2017-10-12T13:21:43.233Z,2.83
2017-10-12T13:24:10.839Z,2.43
2017-10-12T13:26:38.495Z,3.40
2017-10-12T13:29:06.176Z,3.57
2017-10-12T13:31:33.852Z,2.90
2017-10-12T13:34:01.522Z,3.00
2017-10-12T13:36:29.133Z,2.87
2017-10-12T13:38:56.739Z,2.30
2017-10-12T13:41:24.436Z,2.50
2017-10-12T13:43:52.053Z,3.00
2017-10-12T13:46:19.656Z,1.90
2017-10-12T13:48:47.364Z,2.77
2017-10-12T13:51:14.984Z,2.20
2017-10-12T13:53:42.648Z,2.83
2017-10-12T13:56:10.376Z,2.17
2017-10-12T13:58:37.979Z,2.23
2017-10-12T14:01:05.649Z,4.00
2017-10-12T14:03:33.411Z,1.60
2017-10-12T14:06:01.025Z,3.60
2017-10-12T14:08:28.628Z,2.63
2017-10-12T14:10:56.300Z,2.17
2017-10-12T14:13:23.992Z,2.27
2017-10-12T14:15:51.591Z,3.00
2017-10-12T14:18:19.248Z,4.17
2017-10-12T14:20:46.851Z,5.53
2017-10-12T14:23:14.525Z,2.70
2017-10-12T14:25:42.188Z,1.20
2017-10-12T14:28:09.816Z,2.30
2017-10-12T14:30:37.429Z,1.93
2017-10-12T14:33:05.111Z,3.53
2017-10-12T14:35:32.780Z,4.73
2017-10-12T14:38:00.410Z,4.67
2017-10-12T14:40:28.080Z,3.40
2017-10-12T14:42:55.687Z,5.47
2017-10-12T14:45:23.305Z,5.00
2017-10-12T14:47:51.019Z,4.57
2017-10-12T14:50:18.679Z,5.07
2017-10-12T14:52:46.344Z,7.20
2017-10-12T14:55:14.076Z,6.73
2017-10-12T14:57:41.675Z,7.13
2017-10-12T15:00:09.350Z,8.43
2017-10-12T15:02:37.124Z,8.40
2017-10-12T15:05:04.790Z,9.30
2017-10-12T15:07:32.457Z,8.27
2017-10-12T15:10:00.195Z,8.00
2017-10-12T15:12:27.865Z,8.03
2017-10-12T15:14:55.478Z,9.77
2017-10-12T15:17:23.123Z,7.73
2017-10-12T15:19:50.796Z,7.50
2017-10-12T15:22:18.455Z,5.93
2017-10-12T15:24:46.172Z,6.00
2017-10-12T15:27:13.835Z,9.20
2017-10-12T15:29:41.497Z,7.50
2017-10-12T15:32:09.167Z,7.17
2017-10-12T15:34:36.831Z,6.43
2017-10-12T15:37:04.428Z,8.00
2017-10-12T15:39:32.114Z,6.67
2017-10-12T15:41:59.783Z,10.87
2017-10-12T15:44:27.392Z,10.70
2017-10-12T15:46:55.156Z,10.87
2017-10-12T15:49:22.764Z,11.83
2017-10-12T15:51:50.387Z,10.63
2017-10-12T15:54:18.048Z,12.03
2017-10-12T15:56:45.711Z,11.80
2017-10-12T15:59:13.423Z,10.57
2017-10-12T16:01:41.148Z,9.47
2017-10-12T16:04:08.759Z,12.87
2017-10-12T16:06:36.430Z,15.03
2017-10-12T16:09:04.236Z,13.47
2017-10-12T16:11:31.846Z,17.43
2017-10-12T16:13:59.579Z,20.73
2017-10-12T16:16:27.287Z,18.37
2017-10-12T16:18:54.957Z,16.43
2017-10-12T16:21:22.561Z,16.77
2017-10-12T16:23:51.007Z,16.53
2017-10-12T16:26:18.679Z,15.70
2017-10-12T16:28:46.343Z,15.00
2017-10-12T16:31:14.011Z,12.83
2017-10-12T16:33:41.680Z,14.23
2017-10-12T16:36:09.284Z,11.83
2017-10-12T16:38:37.105Z,12.87
2017-10-12T16:41:04.766Z,12.93
2017-10-12T16:43:32.374Z,11.30
2017-10-12T16:46:00.044Z,8.73
2017-10-12T16:48:27.703Z,8.73
2017-10-12T16:50:55.366Z,9.07
2017-10-12T16:53:23.100Z,9.07
2017-10-12T16:55:50.716Z,10.13
2017-10-12T16:58:18.384Z,11.33
2017-10-12T17:00:46.052Z,11.87
2017-10-12T17:03:13.725Z,13.60
2017-10-12T17:05:41.423Z,17.80
2017-10-12T17:08:09.210Z,21.40
2017-10-12T17:13:04.581Z,31.40
2017-10-12T17:15:32.301Z,32.07
2017-10-12T17:17:59.964Z,32.50
2017-10-12T17:20:27.674Z,32.53
2017-10-12T17:22:55.408Z,26.80
2017-10-12T17:25:23.080Z,26.00
2017-10-12T17:27:50.695Z,19.20
2017-10-12T17:30:18.429Z,18.87
2017-10-12T17:32:46.109Z,21.70
2017-10-12T17:35:13.719Z,19.77
2017-10-12T17:37:41.467Z,33.00
2017-10-12T17:40:09.140Z,26.30
2017-10-12T17:42:36.832Z,25.37
2017-10-12T17:45:04.552Z,34.60
2017-10-12T17:47:32.174Z,29.37
2017-10-12T17:49:59.842Z,24.87
2017-10-12T17:52:27.565Z,21.37
2017-10-12T17:54:55.244Z,14.20
2017-10-12T17:57:22.912Z,14.37
2017-10-12T17:59:50.609Z,12.47
2017-10-12T18:02:18.228Z,12.87
2017-10-12T18:04:45.878Z,14.40
2017-10-12T18:07:13.551Z,11.60
2017-10-12T18:09:41.173Z,12.63
2017-10-12T18:12:23.814Z,11.00
2017-10-12T18:14:36.624Z,11.67
2017-10-12T18:17:04.232Z,12.40
2017-10-12T18:19:31.191Z,11.50
2017-10-12T18:21:58.917Z,9.90
2017-10-12T18:24:26.543Z,7.73
2017-10-12T18:26:54.241Z,8.13
2017-10-12T18:29:21.952Z,7.90
2017-10-12T18:31:49.560Z,5.70
2017-10-12T18:34:17.166Z,5.40
2017-10-12T18:36:44.830Z,6.00
2017-10-12T18:39:12.471Z,5.30
2017-10-12T18:41:40.074Z,4.47
2017-10-12T18:44:07.720Z,4.60
2017-10-12T18:46:35.389Z,4.40
2017-10-12T18:49:02.995Z,5.60
2017-10-12T18:51:30.649Z,5.27
2017-10-12T18:53:58.259Z,5.63
2017-10-12T18:56:25.890Z,5.13
2017-10-12T18:58:53.643Z,5.43
2017-10-12T19:01:21.267Z,4.57
2017-10-12T19:03:48.936Z,4.67
2017-10-12T19:06:16.592Z,4.77
2017-10-12T19:08:44.199Z,4.50
2017-10-12T19:11:11.799Z,5.50
2017-10-12T19:13:39.520Z,5.90
2017-10-12T19:16:07.184Z,5.20
2017-10-12T19:18:34.796Z,6.90
2017-10-12T19:21:02.519Z,5.47
2017-10-12T19:23:30.128Z,4.93
2017-10-12T19:25:57.797Z,5.47
2017-10-12T19:28:40.388Z,5.10
2017-10-12T19:30:53.223Z,4.90
2017-10-12T19:33:20.904Z,5.20
2017-10-12T19:35:48.584Z,4.17
2017-10-12T19:38:16.197Z,4.30
2017-10-12T19:43:11.588Z,4.17
2017-10-12T19:45:39.201Z,4.00
2017-10-12T19:48:06.839Z,4.10
2017-10-12T19:50:34.491Z,4.60
2017-10-12T19:53:02.117Z,4.00
2017-10-12T19:55:29.737Z,3.50
2017-10-12T19:57:57.452Z,4.03
2017-10-12T20:00:25.060Z,5.50
2017-10-12T20:02:52.673Z,5.13
2017-10-12T20:05:20.392Z,4.47
2017-10-12T20:07:48.004Z,4.27
2017-10-12T20:10:15.628Z,4.40
2017-10-12T20:12:43.344Z,4.50
2017-10-12T20:15:11.022Z,5.20
2017-10-12T20:17:38.645Z,4.77
2017-10-12T20:20:06.299Z,5.17
2017-10-12T20:22:33.907Z,6.60
2017-10-12T20:25:01.516Z,6.03
2017-10-12T20:27:29.167Z,5.73
2017-10-12T20:29:56.771Z,5.40
2017-10-12T20:32:24.443Z,5.77
2017-10-12T20:34:52.220Z,6.20
2017-10-12T20:37:19.818Z,6.67
2017-10-12T20:39:47.432Z,6.53
2017-10-12T20:42:15.171Z,6.23
2017-10-12T20:44:42.796Z,5.97
2017-10-12T20:47:10.416Z,7.17
2017-10-12T20:49:38.139Z,6.00
2017-10-12T20:54:33.413Z,9.10
2017-10-12T20:57:01.066Z,7.23
2017-10-12T20:59:28.676Z,7.77
2017-10-12T21:01:56.278Z,9.53
2017-10-12T21:04:23.943Z,8.80
2017-10-12T21:06:51.557Z,12.00
2017-10-12T21:09:19.232Z,13.57
2017-10-12T21:11:46.927Z,13.77
2017-10-12T21:14:14.531Z,13.87
2017-10-12T21:16:42.140Z,20.07
2017-10-12T21:19:09.851Z,27.70
2017-10-12T21:21:37.458Z,31.07
2017-10-12T21:24:05.063Z,26.13
2017-10-12T21:26:32.719Z,25.33
2017-10-12T21:29:00.331Z,22.30
2017-10-12T21:31:27.939Z,22.87
2017-10-12T21:33:55.599Z,19.47
2017-10-12T21:36:23.207Z,17.80
2017-10-12T21:38:50.820Z,16.60
2017-10-12T21:41:18.484Z,14.13
2017-10-12T21:43:46.099Z,14.27
2017-10-12T21:46:13.778Z,16.70
2017-10-12T21:48:41.447Z,17.63
2017-10-12T21:51:09.063Z,18.30
2017-10-12T21:53:36.670Z,19.00
2017-10-12T21:56:04.387Z,18.63
2017-10-12T21:58:32.064Z,18.70
2017-10-12T22:00:59.731Z,20.43
2017-10-12T22:03:27.479Z,17.17
2017-10-12T22:05:55.088Z,16.63
2017-10-12T22:08:22.688Z,16.53
2017-10-12T22:10:50.348Z,16.50
2017-10-12T22:13:17.975Z,17.07
2017-10-12T22:15:45.592Z,18.73
2017-10-12T22:18:13.256Z,15.93
2017-10-12T22:20:40.918Z,18.10
2017-10-12T22:23:08.588Z,17.47
2017-10-12T22:25:36.252Z,17.40
2017-10-12T22:28:03.878Z,16.87
2017-10-12T22:30:31.492Z,16.23
2017-10-12T22:32:59.151Z,18.23
2017-10-12T22:35:26.767Z,18.07
2017-10-12T22:37:54.376Z,17.23
2017-10-12T22:40:22.087Z,18.30
2017-10-12T22:42:49.723Z,18.20
2017-10-12T22:45:17.331Z,17.80
2017-10-12T22:47:45.064Z,17.23
2017-10-12T22:50:12.778Z,19.53
2017-10-12T22:52:40.388Z,20.37
2017-10-12T22:55:08.079Z,18.20
2017-10-12T22:57:35.750Z,19.90
2017-10-12T23:00:03.355Z,21.47
2017-10-12T23:02:31.013Z,22.47
2017-10-12T23:04:58.672Z,24.37
2017-10-12T23:07:26.280Z,26.60
2017-10-12T23:09:53.932Z,28.30
2017-10-12T23:12:21.536Z,25.23
2017-10-12T23:14:49.196Z,24.27
2017-10-12T23:17:16.903Z,24.13
2017-10-12T23:19:44.524Z,22.00
2017-10-12T23:22:12.244Z,20.77
2017-10-12T23:24:39.907Z,27.40
2017-10-12T23:27:07.572Z,24.97
2017-10-12T23:29:35.223Z,22.87
2017-10-12T23:32:02.883Z,21.50
2017-10-12T23:34:30.548Z,22.13
2017-10-12T23:36:58.159Z,22.60
2017-10-12T23:39:25.814Z,22.13
2017-10-12T23:41:53.475Z,20.97
2017-10-12T23:44:21.131Z,21.33
2017-10-12T23:46:48.799Z,20.20
2017-10-12T23:49:16.463Z,18.33
2017-10-12T23:51:44.077Z,21.90
2017-10-12T23:54:11.739Z,21.80
2017-10-12T23:56:39.353Z,20.80
2017-10-12T23:59:06.967Z,19.60
